sensor_id;sensor_type;location;lat;lon;timestamp;pressure;altitude;pressure_sealevel;temperature;humidity
25664;BME280;13522;50.018;20.014;2023-04-01T00:01:30;97068.02;;;11.21;80.07
25664;BME280;13522;50.018;20.014;2023-04-01T00:04:43;97069.57;;;11.15;80.43
25664;BME280;13522;50.018;20.014;2023-04-01T00:07:55;97076.27;;;11.11;80.66
25664;BME280;13522;50.018;20.014;2023-04-01T00:11:07;97089.75;;;11.10;80.92
25664;BME280;13522;50.018;20.014;2023-04-01T00:14:20;97074.64;;;11.10;80.77
25664;BME280;13522;50.018;20.014;2023-04-01T00:17:33;97074.83;;;11.09;81.94
25664;BME280;13522;50.018;20.014;2023-04-01T00:20:48;97068.05;;;11.06;81.40
25664;BME280;13522;50.018;20.014;2023-04-01T00:24:01;97061.47;;;11.02;81.83
25664;BME280;13522;50.018;20.014;2023-04-01T00:27:14;97046.92;;;10.98;82.27
25664;BME280;13522;50.018;20.014;2023-04-01T00:30:26;97048.30;;;10.94;83.39
25664;BME280;13522;50.018;20.014;2023-04-01T00:33:39;97056.02;;;10.89;83.55
25664;BME280;13522;50.018;20.014;2023-04-01T00:36:51;97046.14;;;10.83;83.94
25664;BME280;13522;50.018;20.014;2023-04-01T00:40:06;97036.71;;;10.81;84.44
25664;BME280;13522;50.018;20.014;2023-04-01T00:43:22;97049.80;;;10.82;84.50
25664;BME280;13522;50.018;20.014;2023-04-01T00:46:34;97041.19;;;10.80;84.65
25664;BME280;13522;50.018;20.014;2023-04-01T00:49:48;97041.19;;;10.80;85.02
25664;BME280;13522;50.018;20.014;2023-04-01T00:53:02;97049.55;;;10.77;84.93
25664;BME280;13522;50.018;20.014;2023-04-01T00:56:18;97052.36;;;10.76;84.58
25664;BME280;13522;50.018;20.014;2023-04-01T00:59:35;97048.27;;;10.73;84.68
25664;BME280;13522;50.018;20.014;2023-04-01T01:02:52;97041.11;;;10.74;85.44
25664;BME280;13522;50.018;20.014;2023-04-01T01:06:11;97047.00;;;10.69;85.29
25664;BME280;13522;50.018;20.014;2023-04-01T01:09:35;97051.66;;;10.67;86.47
25664;BME280;13522;50.018;20.014;2023-04-01T01:12:55;97044.89;;;10.65;86.80
25664;BME280;13522;50.018;20.014;2023-04-01T01:16:12;97049.36;;;10.64;86.70
25664;BME280;13522;50.018;20.014;2023-04-01T01:19:45;97059.63;;;10.67;86.79
25664;BME280;13522;50.018;20.014;2023-04-01T01:23:59;97059.63;;;10.67;86.64
25664;BME280;13522;50.018;20.014;2023-04-01T01:27:30;97048.81;;;10.69;86.16
25664;BME280;13522;50.018;20.014;2023-04-01T01:30:48;97057.42;;;10.71;86.92
25664;BME280;13522;50.018;20.014;2023-04-01T01:34:13;97057.77;;;10.68;86.14
25664;BME280;13522;50.018;20.014;2023-04-01T01:37:28;97054.48;;;10.66;87.22
25664;BME280;13522;50.018;20.014;2023-04-01T01:40:44;97059.79;;;10.66;86.73
25664;BME280;13522;50.018;20.014;2023-04-01T01:44:01;97059.15;;;10.64;87.43
25664;BME280;13522;50.018;20.014;2023-04-01T01:47:18;97073.26;;;10.64;87.15
25664;BME280;13522;50.018;20.014;2023-04-01T01:50:32;97067.95;;;10.64;87.74
25664;BME280;13522;50.018;20.014;2023-04-01T01:53:46;97066.95;;;10.65;86.97
25664;BME280;13522;50.018;20.014;2023-04-01T01:57:01;97069.77;;;10.64;87.13
25664;BME280;13522;50.018;20.014;2023-04-01T02:00:19;97076.55;;;10.66;87.36
25664;BME280;13522;50.018;20.014;2023-04-01T02:03:36;97075.91;;;10.64;86.75
25664;BME280;13522;50.018;20.014;2023-04-01T02:06:53;97074.92;;;10.65;87.55
25664;BME280;13522;50.018;20.014;2023-04-01T02:10:10;97070.41;;;10.66;87.28
25664;BME280;13522;50.018;20.014;2023-04-01T02:13:26;97073.89;;;10.66;87.40
25664;BME280;13522;50.018;20.014;2023-04-01T02:16:45;97079.59;;;10.63;86.87
25664;BME280;13522;50.018;20.014;2023-04-01T02:20:02;97075.66;;;10.59;87.64
25664;BME280;13522;50.018;20.014;2023-04-01T02:23:17;97073.19;;;10.58;88.15
25664;BME280;13522;50.018;20.014;2023-04-01T02:26:30;97086.81;;;10.55;88.33
25664;BME280;13522;50.018;20.014;2023-04-01T02:29:42;97083.72;;;10.51;88.53
25664;BME280;13522;50.018;20.014;2023-04-01T02:32:56;97075.46;;;10.46;88.68
25664;BME280;13522;50.018;20.014;2023-04-01T02:36:14;97079.48;;;10.42;88.58
25664;BME280;13522;50.018;20.014;2023-04-01T02:39:27;97088.81;;;10.38;88.67
25664;BME280;13522;50.018;20.014;2023-04-01T02:42:40;97098.63;;;10.37;89.54
25664;BME280;13522;50.018;20.014;2023-04-01T02:45:52;97095.98;;;10.37;89.84
25664;BME280;13522;50.018;20.014;2023-04-01T02:49:04;97102.73;;;10.40;89.74
25664;BME280;13522;50.018;20.014;2023-04-01T02:52:17;97096.78;;;10.38;89.67
25664;BME280;13522;50.018;20.014;2023-04-01T02:55:30;97103.11;;;10.37;88.92
25664;BME280;13522;50.018;20.014;2023-04-01T02:58:43;97100.80;;;10.34;89.45
25664;BME280;13522;50.018;20.014;2023-04-01T03:01:55;97102.81;;;10.32;89.26
25664;BME280;13522;50.018;20.014;2023-04-01T03:05:09;97100.55;;;10.29;89.35
25664;BME280;13522;50.018;20.014;2023-04-01T03:08:21;97098.72;;;10.29;89.97
25664;BME280;13522;50.018;20.014;2023-04-01T03:11:34;97108.69;;;10.27;89.35
25664;BME280;13522;50.018;20.014;2023-04-01T03:14:47;97096.41;;;10.26;90.16
25664;BME280;13522;50.018;20.014;2023-04-01T03:17:59;97097.24;;;10.27;90.10
25664;BME280;13522;50.018;20.014;2023-04-01T03:21:16;97099.25;;;10.25;90.21
25664;BME280;13522;50.018;20.014;2023-04-01T03:24:29;97095.31;;;10.21;90.80
25664;BME280;13522;50.018;20.014;2023-04-01T03:27:42;97100.81;;;10.19;90.52
25664;BME280;13522;50.018;20.014;2023-04-01T03:30:54;97091.83;;;10.20;90.87
25664;BME280;13522;50.018;20.014;2023-04-01T03:34:09;97089.02;;;10.22;90.35
25664;BME280;13522;50.018;20.014;2023-04-01T03:37:22;97098.61;;;10.23;91.03
25664;BME280;13522;50.018;20.014;2023-04-01T03:40:34;97096.49;;;10.18;90.82
25664;BME280;13522;50.018;20.014;2023-04-01T03:43:48;97084.89;;;10.19;90.96
25664;BME280;13522;50.018;20.014;2023-04-01T03:47:00;97099.63;;;10.22;91.25
25664;BME280;13522;50.018;20.014;2023-04-01T03:50:15;97103.27;;;10.21;90.52
25664;BME280;13522;50.018;20.014;2023-04-01T03:53:28;97105.92;;;10.21;91.43
25664;BME280;13522;50.018;20.014;2023-04-01T03:56:40;97103.27;;;10.21;91.25
25664;BME280;13522;50.018;20.014;2023-04-01T03:59:53;97105.92;;;10.21;91.28
25664;BME280;13522;50.018;20.014;2023-04-01T04:03:08;97111.88;;;10.23;91.33
25664;BME280;13522;50.018;20.014;2023-04-01T04:06:21;97111.88;;;10.23;91.40
25664;BME280;13522;50.018;20.014;2023-04-01T04:09:34;97116.19;;;10.24;90.76
25664;BME280;13522;50.018;20.014;2023-04-01T04:12:46;97108.23;;;10.24;91.70
25664;BME280;13522;50.018;20.014;2023-04-01T04:16:00;97115.17;;;10.25;91.57
25664;BME280;13522;50.018;20.014;2023-04-01T04:19:13;97118.47;;;10.27;91.05
25664;BME280;13522;50.018;20.014;2023-04-01T04:22:25;97126.43;;;10.27;91.19
25664;BME280;13522;50.018;20.014;2023-04-01T04:25:38;97127.07;;;10.29;90.99
25664;BME280;13522;50.018;20.014;2023-04-01T04:28:50;97130.55;;;10.29;91.18
25664;BME280;13522;50.018;20.014;2023-04-01T04:32:03;97130.37;;;10.31;91.63
25664;BME280;13522;50.018;20.014;2023-04-01T04:35:16;97120.94;;;10.28;91.72
25664;BME280;13522;50.018;20.014;2023-04-01T04:38:28;97119.56;;;10.32;90.98
25664;BME280;13522;50.018;20.014;2023-04-01T04:41:42;97117.74;;;10.33;91.69
25664;BME280;13522;50.018;20.014;2023-04-01T04:44:54;97119.38;;;10.34;91.27
25664;BME280;13522;50.018;20.014;2023-04-01T04:48:10;97121.05;;;10.35;90.85
25664;BME280;13522;50.018;20.014;2023-04-01T04:51:25;97123.50;;;10.36;91.35
25664;BME280;13522;50.018;20.014;2023-04-01T04:54:40;97115.35;;;10.38;91.13
25664;BME280;13522;50.018;20.014;2023-04-01T04:57:52;97122.33;;;10.39;90.67
25664;BME280;13522;50.018;20.014;2023-04-01T05:01:10;97124.59;;;10.42;90.44
25664;BME280;13522;50.018;20.014;2023-04-01T05:04:23;97132.56;;;10.42;91.08
25664;BME280;13522;50.018;20.014;2023-04-01T05:07:36;97133.39;;;10.42;90.63
25664;BME280;13522;50.018;20.014;2023-04-01T05:10:48;97126.91;;;10.45;91.00
25664;BME280;13522;50.018;20.014;2023-04-01T05:14:01;97126.91;;;10.45;91.28
25664;BME280;13522;50.018;20.014;2023-04-01T05:17:14;97135.52;;;10.47;90.26
25664;BME280;13522;50.018;20.014;2023-04-01T05:20:27;97127.36;;;10.48;91.20
25664;BME280;13522;50.018;20.014;2023-04-01T05:23:40;97132.31;;;10.52;90.87
25664;BME280;13522;50.018;20.014;2023-04-01T05:26:53;97130.47;;;10.52;91.93
25664;BME280;13522;50.018;20.014;2023-04-01T05:30:09;97129.47;;;10.53;92.05
25664;BME280;13522;50.018;20.014;2023-04-01T05:33:24;97128.64;;;10.53;92.30
25664;BME280;13522;50.018;20.014;2023-04-01T05:36:37;97125.73;;;10.48;93.19
25664;BME280;13522;50.018;20.014;2023-04-01T05:39:50;97129.38;;;10.46;94.77
25664;BME280;13522;50.018;20.014;2023-04-01T05:43:02;97132.66;;;10.48;94.24
25664;BME280;13522;50.018;20.014;2023-04-01T05:46:15;97129.30;;;10.69;93.77
25664;BME280;13522;50.018;20.014;2023-04-01T05:49:29;97130.25;;;10.97;93.21
25664;BME280;13522;50.018;20.014;2023-04-01T05:52:43;97134.19;;;11.37;92.21
25664;BME280;13522;50.018;20.014;2023-04-01T05:55:56;97127.58;;;11.12;91.50
25664;BME280;13522;50.018;20.014;2023-04-01T05:59:12;97128.32;;;11.06;92.26
25664;BME280;13522;50.018;20.014;2023-04-01T06:02:25;97121.63;;;11.10;92.02
25664;BME280;13522;50.018;20.014;2023-04-01T06:05:41;97122.90;;;11.14;91.14
25664;BME280;13522;50.018;20.014;2023-04-01T06:08:58;97118.97;;;11.10;91.13
25664;BME280;13522;50.018;20.014;2023-04-01T06:12:32;97124.09;;;11.11;91.97
25664;BME280;13522;50.018;20.014;2023-04-01T06:15:53;97119.25;;;11.15;91.79
25664;BME280;13522;50.018;20.014;2023-04-01T06:19:22;97119.83;;;11.31;91.67
25664;BME280;13522;50.018;20.014;2023-04-01T06:23:00;97119.05;;;11.16;91.21
25664;BME280;13522;50.018;20.014;2023-04-01T06:26:27;97124.62;;;11.21;90.69
25664;BME280;13522;50.018;20.014;2023-04-01T06:29:57;97131.20;;;11.25;90.82
25664;BME280;13522;50.018;20.014;2023-04-01T06:33:28;97126.91;;;11.24;91.03
25664;BME280;13522;50.018;20.014;2023-04-01T06:36:59;97132.23;;;11.24;90.77
25664;BME280;13522;50.018;20.014;2023-04-01T06:44:04;97133.64;;;11.42;89.81
25664;BME280;13522;50.018;20.014;2023-04-01T06:47:30;97124.03;;;11.41;89.96
25664;BME280;13522;50.018;20.014;2023-04-01T06:50:55;97130.74;;;11.58;88.78
25664;BME280;13522;50.018;20.014;2023-04-01T06:54:31;97133.12;;;11.67;88.93
25664;BME280;13522;50.018;20.014;2023-04-01T06:57:51;97137.44;;;11.68;88.41
25664;BME280;13522;50.018;20.014;2023-04-01T07:01:09;97129.27;;;11.70;87.73
25664;BME280;13522;50.018;20.014;2023-04-01T07:04:26;97135.21;;;11.72;86.51
25664;BME280;13522;50.018;20.014;2023-04-01T07:07:44;97133.42;;;11.79;87.08
25664;BME280;13522;50.018;20.014;2023-04-01T07:11:02;97135.84;;;11.74;86.54
25664;BME280;13522;50.018;20.014;2023-04-01T07:14:36;97140.33;;;11.73;85.79
25664;BME280;13522;50.018;20.014;2023-04-01T07:17:53;97130.13;;;11.77;84.86
25664;BME280;13522;50.018;20.014;2023-04-01T07:21:13;97131.40;;;11.81;84.87
25664;BME280;13522;50.018;20.014;2023-04-01T07:24:34;97122.79;;;11.79;84.50
25664;BME280;13522;50.018;20.014;2023-04-01T07:27:50;97130.27;;;11.90;83.87
25664;BME280;13522;50.018;20.014;2023-04-01T07:31:13;97129.41;;;12.10;84.65
25664;BME280;13522;50.018;20.014;2023-04-01T07:34:31;97134.43;;;11.99;83.51
25664;BME280;13522;50.018;20.014;2023-04-01T07:37:55;97140.52;;;11.93;84.45
25664;BME280;13522;50.018;20.014;2023-04-01T07:41:19;97132.80;;;11.98;83.40
25664;BME280;13522;50.018;20.014;2023-04-01T07:44:38;97127.91;;;12.01;83.33
25664;BME280;13522;50.018;20.014;2023-04-01T07:48:01;97133.23;;;12.01;82.70
25664;BME280;13522;50.018;20.014;2023-04-01T07:51:21;97127.52;;;12.04;82.72
25664;BME280;13522;50.018;20.014;2023-04-01T07:54:41;97132.84;;;12.04;83.36
25664;BME280;13522;50.018;20.014;2023-04-01T07:58:01;97134.50;;;12.05;83.07
25664;BME280;13522;50.018;20.014;2023-04-01T08:01:22;97138.75;;;12.00;82.66
25664;BME280;13522;50.018;20.014;2023-04-01T08:04:53;97141.02;;;12.03;82.41
25664;BME280;13522;50.018;20.014;2023-04-01T08:08:12;97141.41;;;12.00;82.23
25664;BME280;13522;50.018;20.014;2023-04-01T08:11:53;97131.56;;;12.00;81.39
25664;BME280;13522;50.018;20.014;2023-04-01T08:15:31;97143.54;;;12.11;82.55
25664;BME280;13522;50.018;20.014;2023-04-01T08:18:53;97146.00;;;12.12;81.64
25664;BME280;13522;50.018;20.014;2023-04-01T08:22:11;97148.49;;;12.14;82.00
25664;BME280;13522;50.018;20.014;2023-04-01T08:25:28;97140.59;;;12.27;80.98
25664;BME280;13522;50.018;20.014;2023-04-01T08:28:45;97144.38;;;12.39;81.09
25664;BME280;13522;50.018;20.014;2023-04-01T08:32:05;97150.76;;;12.45;79.84
25664;BME280;13522;50.018;20.014;2023-04-01T08:35:26;97145.69;;;12.50;80.32
25664;BME280;13522;50.018;20.014;2023-04-01T08:38:46;97152.64;;;12.51;80.35
25664;BME280;13522;50.018;20.014;2023-04-01T08:42:35;97143.53;;;12.66;79.76
25664;BME280;13522;50.018;20.014;2023-04-01T08:46:08;97137.05;;;12.82;79.10
25664;BME280;13522;50.018;20.014;2023-04-01T08:49:49;97141.39;;;12.89;78.75
25664;BME280;13522;50.018;20.014;2023-04-01T08:53:18;97132.09;;;13.07;77.34
25664;BME280;13522;50.018;20.014;2023-04-01T08:56:36;97131.34;;;13.19;76.85
25664;BME280;13522;50.018;20.014;2023-04-01T08:59:58;97128.60;;;13.06;77.16
25664;BME280;13522;50.018;20.014;2023-04-01T09:03:54;97133.77;;;13.14;77.61
25664;BME280;13522;50.018;20.014;2023-04-01T09:07:25;97121.06;;;14.42;74.58
25664;BME280;13522;50.018;20.014;2023-04-01T09:14:47;97125.71;;;14.79;70.28
25664;BME280;13522;50.018;20.014;2023-04-01T09:18:36;97112.50;;;15.48;67.49
25664;BME280;13522;50.018;20.014;2023-04-01T09:22:23;97113.28;;;15.04;68.34
25664;BME280;13522;50.018;20.014;2023-04-01T09:25:48;97113.58;;;14.76;70.62
25664;BME280;13522;50.018;20.014;2023-04-01T09:29:14;97114.46;;;14.44;71.68
25664;BME280;13522;50.018;20.014;2023-04-01T09:32:47;97119.41;;;14.41;71.76
25664;BME280;13522;50.018;20.014;2023-04-01T09:36:20;97125.55;;;14.61;71.99
25664;BME280;13522;50.018;20.014;2023-04-01T09:39:42;97119.97;;;14.75;71.34
25664;BME280;13522;50.018;20.014;2023-04-01T09:43:23;97116.55;;;14.29;72.06
25664;BME280;13522;50.018;20.014;2023-04-01T09:46:47;97124.33;;;13.98;72.74
25664;BME280;13522;50.018;20.014;2023-04-01T09:50:27;97112.40;;;13.74;73.48
25664;BME280;13522;50.018;20.014;2023-04-01T09:53:56;97129.20;;;13.75;74.00
25664;BME280;13522;50.018;20.014;2023-04-01T10:01:35;97139.30;;;14.19;75.20
25664;BME280;13522;50.018;20.014;2023-04-01T10:05:29;97143.01;;;13.98;74.01
25664;BME280;13522;50.018;20.014;2023-04-01T10:13:37;97163.17;;;12.99;79.92
25664;BME280;13522;50.018;20.014;2023-04-01T10:17:34;97159.30;;;13.02;81.58
25664;BME280;13522;50.018;20.014;2023-04-01T10:21:07;97153.49;;;12.85;82.97
25664;BME280;13522;50.018;20.014;2023-04-01T10:36:53;97181.73;;;12.52;85.07
25664;BME280;13522;50.018;20.014;2023-04-01T10:40:29;97183.25;;;12.61;86.08
25664;BME280;13522;50.018;20.014;2023-04-01T10:52:51;97185.53;;;12.98;83.47
25664;BME280;13522;50.018;20.014;2023-04-01T10:56:44;97174.95;;;13.12;83.24
25664;BME280;13522;50.018;20.014;2023-04-01T11:00:34;97167.79;;;13.12;82.07
25664;BME280;13522;50.018;20.014;2023-04-01T11:09:02;97163.36;;;14.38;77.33
25664;BME280;13522;50.018;20.014;2023-04-01T11:12:51;97167.02;;;13.91;76.23
25664;BME280;13522;50.018;20.014;2023-04-01T11:28:59;97166.06;;;13.39;79.82
25664;BME280;13522;50.018;20.014;2023-04-01T11:32:28;97167.07;;;13.38;80.21
25664;BME280;13522;50.018;20.014;2023-04-01T11:39:47;97157.58;;;14.09;77.91
25664;BME280;13522;50.018;20.014;2023-04-01T11:43:13;97144.38;;;14.92;75.14
25664;BME280;13522;50.018;20.014;2023-04-01T11:46:59;97124.05;;;15.35;72.05
25664;BME280;13522;50.018;20.014;2023-04-01T11:50:23;97135.80;;;15.34;70.32
25664;BME280;13522;50.018;20.014;2023-04-01T11:53:46;97154.46;;;14.84;72.33
25664;BME280;13522;50.018;20.014;2023-04-01T11:57:12;97167.66;;;14.20;79.30
25664;BME280;13522;50.018;20.014;2023-04-01T12:00:50;97170.70;;;13.84;81.39
25664;BME280;13522;50.018;20.014;2023-04-01T12:04:53;97173.44;;;13.37;85.45
25664;BME280;13522;50.018;20.014;2023-04-01T12:08:18;97172.91;;;13.14;86.80
25664;BME280;13522;50.018;20.014;2023-04-01T12:11:39;97175.11;;;13.44;85.51
25664;BME280;13522;50.018;20.014;2023-04-01T12:15:02;97163.36;;;14.38;82.00
25664;BME280;13522;50.018;20.014;2023-04-01T12:18:23;97156.58;;;15.32;78.16
25664;BME280;13522;50.018;20.014;2023-04-01T12:21:41;97161.43;;;15.55;74.04
25664;BME280;13522;50.018;20.014;2023-04-01T12:25:01;97165.56;;;15.51;72.67
25664;BME280;13522;50.018;20.014;2023-04-01T12:28:25;97166.84;;;15.35;71.65
25664;BME280;13522;50.018;20.014;2023-04-01T12:31:50;97171.88;;;15.12;73.20
25664;BME280;13522;50.018;20.014;2023-04-01T12:35:20;97181.22;;;14.70;74.40
25664;BME280;13522;50.018;20.014;2023-04-01T12:38:39;97184.72;;;14.78;75.16
25664;BME280;13522;50.018;20.014;2023-04-01T12:41:59;97173.16;;;14.97;74.61
25664;BME280;13522;50.018;20.014;2023-04-01T12:49:10;97167.22;;;15.52;72.10
25664;BME280;13522;50.018;20.014;2023-04-01T12:52:34;97162.39;;;15.23;72.36
25664;BME280;13522;50.018;20.014;2023-04-01T12:55:53;97177.90;;;14.82;72.82
25664;BME280;13522;50.018;20.014;2023-04-01T12:59:20;97170.76;;;14.36;74.25
25664;BME280;13522;50.018;20.014;2023-04-01T13:03:00;97175.23;;;14.03;75.09
25664;BME280;13522;50.018;20.014;2023-04-01T13:10:15;97192.20;;;13.69;77.04
25664;BME280;13522;50.018;20.014;2023-04-01T13:14:00;97190.39;;;13.83;77.10
25664;BME280;13522;50.018;20.014;2023-04-01T13:17:39;97193.73;;;14.11;77.18
25664;BME280;13522;50.018;20.014;2023-04-01T13:21:00;97194.56;;;14.25;77.18
25664;BME280;13522;50.018;20.014;2023-04-01T13:24:27;97195.84;;;14.61;77.15
25664;BME280;13522;50.018;20.014;2023-04-01T13:27:46;97202.56;;;14.25;77.02
25664;BME280;13522;50.018;20.014;2023-04-01T13:31:05;97205.83;;;13.94;77.36
25664;BME280;13522;50.018;20.014;2023-04-01T13:34:26;97217.43;;;13.67;79.44
25664;BME280;13522;50.018;20.014;2023-04-01T13:37:51;97214.90;;;13.46;81.99
25664;BME280;13522;50.018;20.014;2023-04-01T13:41:09;97216.94;;;13.44;82.35
25664;BME280;13522;50.018;20.014;2023-04-01T13:44:27;97216.94;;;13.44;83.90
25664;BME280;13522;50.018;20.014;2023-04-01T13:48:10;97232.74;;;13.04;84.56
25664;BME280;13522;50.018;20.014;2023-04-01T13:51:54;97232.03;;;12.96;86.31
25664;BME280;13522;50.018;20.014;2023-04-01T13:59:16;97244.08;;;12.85;87.40
25664;BME280;13522;50.018;20.014;2023-04-01T14:03:03;97227.46;;;12.83;88.05
25664;BME280;13522;50.018;20.014;2023-04-01T14:06:27;97226.05;;;12.87;86.98
25664;BME280;13522;50.018;20.014;2023-04-01T14:13:37;97221.14;;;13.19;84.70
25664;BME280;13522;50.018;20.014;2023-04-01T14:20:47;97214.10;;;13.52;80.95
25664;BME280;13522;50.018;20.014;2023-04-01T14:28:00;97219.41;;;13.45;83.12
25664;BME280;13522;50.018;20.014;2023-04-01T14:31:27;97218.60;;;13.45;83.11
25664;BME280;13522;50.018;20.014;2023-04-01T14:35:05;97220.89;;;13.54;83.27
25664;BME280;13522;50.018;20.014;2023-04-01T14:38:37;97226.81;;;13.50;83.10
25664;BME280;13522;50.018;20.014;2023-04-01T14:42:03;97219.73;;;13.23;84.24
25664;BME280;13522;50.018;20.014;2023-04-01T14:45:47;97232.96;;;13.10;84.92
25664;BME280;13522;50.018;20.014;2023-04-01T14:49:15;97226.63;;;13.11;85.40
25664;BME280;13522;50.018;20.014;2023-04-01T14:52:32;97217.30;;;13.00;86.75
25664;BME280;13522;50.018;20.014;2023-04-01T14:55:52;97231.08;;;13.03;86.69
25664;BME280;13522;50.018;20.014;2023-04-01T14:59:13;97239.20;;;12.95;88.09
25664;BME280;13522;50.018;20.014;2023-04-01T15:02:49;97233.64;;;12.90;88.59
25664;BME280;13522;50.018;20.014;2023-04-01T15:06:33;97239.39;;;12.94;88.72
25664;BME280;13522;50.018;20.014;2023-04-01T15:10:03;97233.42;;;12.85;89.18
25664;BME280;13522;50.018;20.014;2023-04-01T15:13:29;97239.52;;;12.79;90.04
25664;BME280;13522;50.018;20.014;2023-04-01T15:17:01;97243.33;;;12.70;90.18
25664;BME280;13522;50.018;20.014;2023-04-01T15:24:14;97260.72;;;12.66;92.03
25664;BME280;13522;50.018;20.014;2023-04-01T15:27:36;97261.05;;;12.57;93.22
25664;BME280;13522;50.018;20.014;2023-04-01T15:30:56;97261.11;;;12.63;93.25
25664;BME280;13522;50.018;20.014;2023-04-01T15:34:19;97263.58;;;12.65;93.94
25664;BME280;13522;50.018;20.014;2023-04-01T15:37:40;97272.40;;;12.65;93.43
25664;BME280;13522;50.018;20.014;2023-04-01T15:41:00;97286.09;;;12.62;96.98
25664;BME280;13522;50.018;20.014;2023-04-01T15:44:37;97280.16;;;12.39;98.27
25664;BME280;13522;50.018;20.014;2023-04-01T15:48:01;97288.83;;;12.27;100.00
25664;BME280;13522;50.018;20.014;2023-04-01T15:51:38;97287.23;;;12.11;100.00
25664;BME280;13522;50.018;20.014;2023-04-01T15:55:22;97299.91;;;12.09;100.00
25664;BME280;13522;50.018;20.014;2023-04-01T15:58:44;97290.31;;;11.93;100.00
25664;BME280;13522;50.018;20.014;2023-04-01T16:02:07;97294.45;;;11.96;100.00
25664;BME280;13522;50.018;20.014;2023-04-01T16:05:29;97299.88;;;11.88;100.00
25664;BME280;13522;50.018;20.014;2023-04-01T16:09:06;97297.97;;;11.82;100.00
25664;BME280;13522;50.018;20.014;2023-04-01T16:12:33;97307.69;;;11.75;100.00
25664;BME280;13522;50.018;20.014;2023-04-01T16:15:56;97318.16;;;11.76;100.00
25664;BME280;13522;50.018;20.014;2023-04-01T16:19:22;97317.58;;;11.81;100.00
25664;BME280;13522;50.018;20.014;2023-04-01T16:22:58;97322.36;;;11.71;100.00
25664;BME280;13522;50.018;20.014;2023-04-01T16:26:19;97330.98;;;11.73;100.00
25664;BME280;13522;50.018;20.014;2023-04-01T16:29:38;97333.38;;;11.68;100.00
25664;BME280;13522;50.018;20.014;2023-04-01T16:32:56;97333.00;;;11.71;100.00
25664;BME280;13522;50.018;20.014;2023-04-01T16:36:19;97334.66;;;11.72;100.00
25664;BME280;13522;50.018;20.014;2023-04-01T16:39:36;97325.41;;;11.68;100.00
25664;BME280;13522;50.018;20.014;2023-04-01T16:42:55;97334.92;;;11.62;100.00
25664;BME280;13522;50.018;20.014;2023-04-01T16:46:33;97340.14;;;11.56;100.00
25664;BME280;13522;50.018;20.014;2023-04-01T16:49:52;97351.79;;;11.40;100.00
25664;BME280;13522;50.018;20.014;2023-04-01T16:53:14;97355.63;;;11.38;100.00
25664;BME280;13522;50.018;20.014;2023-04-01T16:56:36;97370.48;;;11.32;100.00
25664;BME280;13522;50.018;20.014;2023-04-01T16:59:55;97365.35;;;11.30;100.00
25664;BME280;13522;50.018;20.014;2023-04-01T17:03:15;97372.11;;;11.33;100.00
25664;BME280;13522;50.018;20.014;2023-04-01T17:06:36;97377.27;;;11.34;100.00
25664;BME280;13522;50.018;20.014;2023-04-01T17:13:43;97381.72;;;11.19;100.00
25664;BME280;13522;50.018;20.014;2023-04-01T17:17:11;97384.18;;;11.06;100.00
25664;BME280;13522;50.018;20.014;2023-04-01T17:23:58;97409.40;;;10.88;100.00
25664;BME280;13522;50.018;20.014;2023-04-01T17:27:20;97408.94;;;10.84;100.00
25664;BME280;13522;50.018;20.014;2023-04-01T17:30:42;97411.95;;;10.81;100.00
25664;BME280;13522;50.018;20.014;2023-04-01T17:34:09;97416.63;;;10.79;100.00
25664;BME280;13522;50.018;20.014;2023-04-01T17:37:44;97421.28;;;10.77;100.00
25664;BME280;13522;50.018;20.014;2023-04-01T17:41:05;97417.33;;;10.73;100.00
25664;BME280;13522;50.018;20.014;2023-04-01T17:44:27;97422.27;;;10.76;100.00
25664;BME280;13522;50.018;20.014;2023-04-01T17:47:52;97426.00;;;10.67;100.00
25664;BME280;13522;50.018;20.014;2023-04-01T17:51:25;97431.46;;;10.66;100.00
25664;BME280;13522;50.018;20.014;2023-04-01T17:54:45;97432.66;;;10.63;100.00
25664;BME280;13522;50.018;20.014;2023-04-01T17:58:03;97426.70;;;10.61;100.00
25664;BME280;13522;50.018;20.014;2023-04-01T18:01:24;97437.79;;;10.65;100.00
25664;BME280;13522;50.018;20.014;2023-04-01T18:05:32;97446.59;;;10.65;100.00
25664;BME280;13522;50.018;20.014;2023-04-01T18:09:00;97444.73;;;10.66;100.00
25664;BME280;13522;50.018;20.014;2023-04-01T18:12:19;97444.59;;;10.67;100.00
25664;BME280;13522;50.018;20.014;2023-04-01T18:15:38;97449.89;;;10.67;100.00
25664;BME280;13522;50.018;20.014;2023-04-01T18:18:57;97453.20;;;10.69;100.00
25664;BME280;13522;50.018;20.014;2023-04-01T18:22:17;97457.49;;;10.70;100.00
25664;BME280;13522;50.018;20.014;2023-04-01T18:25:34;97455.54;;;10.64;100.00
25664;BME280;13522;50.018;20.014;2023-04-01T18:28:52;97462.52;;;10.65;100.00
25664;BME280;13522;50.018;20.014;2023-04-01T18:32:27;97461.69;;;10.65;100.00
25664;BME280;13522;50.018;20.014;2023-04-01T18:35:50;97475.47;;;10.60;100.00
25664;BME280;13522;50.018;20.014;2023-04-01T18:39:10;97473.66;;;10.61;100.00
25664;BME280;13522;50.018;20.014;2023-04-01T18:42:31;97475.84;;;10.57;100.00
25664;BME280;13522;50.018;20.014;2023-04-01T18:45:51;97496.45;;;10.47;100.00
25664;BME280;13522;50.018;20.014;2023-04-01T18:49:16;97492.83;;;10.40;100.00
25664;BME280;13522;50.018;20.014;2023-04-01T18:52:36;97492.72;;;10.33;100.00
25664;BME280;13522;50.018;20.014;2023-04-01T18:55:53;97489.88;;;10.35;100.00
25664;BME280;13522;50.018;20.014;2023-04-01T18:59:10;97493.88;;;10.31;100.00
25664;BME280;13522;50.018;20.014;2023-04-01T19:02:31;97498.34;;;10.30;100.00
25664;BME280;13522;50.018;20.014;2023-04-01T19:05:47;97496.23;;;10.26;100.00
25664;BME280;13522;50.018;20.014;2023-04-01T19:09:16;97503.36;;;10.25;100.00